Dodge City, KS (67801)

6:57 AM CDT on April 23, 2017 (GMT -0500)
DCDolphins Weather | | Change Station
Active Advisory: Frost Advisory

Elev 2628 ft 37.78 °N, 100.03 °W | Updated 8 seconds ago

Clear
Clear
32.6 °F
Feels Like 33 °F
N
0.0
Wind Variable Wind from SSE

Today
High -- | Low -- °F
--% Chance of Precip.
Yesterday
High -- | Low -- °F
Precip. -- in
Pressure 30.21 in
Visibility 10.0 miles
Clouds Clear
Windchill 33 °F
Dew Point 30 °F
Humidity 90%
Rainfall 0.00 in
Snow Depth Not available.
6:53 AM 8:23 PM
Waning Crescent, 12% visible
METAR KDDC 231152Z AUTO 23006KT 10SM CLR 01/M01 A3020 RMK AO2 SLP229 T00111011 10050 20011 58008
Pressure 30.21 in
Visibility 10.0 miles
Clouds Clear
Windchill 33 °F
Dew Point 30 °F
Humidity 90%
Rainfall 0.00 in
Snow Depth Not available.
6:53 AM 8:23 PM
Waning Crescent, 12% visible
METAR KDDC 231152Z AUTO 23006KT 10SM CLR 01/M01 A3020 RMK AO2 SLP229 T00111011 10050 20011 58008

Get Your Daily Forecast Email!

Thanks for signing up!

Be on the lookout for a verification email in your inbox.

You'll start receiving severe weather alerts in your inbox..

×

10-Day Weather Forecast

Almanac

Astronomy

Apr. 23, 2017 Rise Set
Actual Time
Civil Twilight
Nautical Twilight
Astronomical Twilight
Moon
Length of Visible Light
Length of Day
Tomorrow will be .
, % of the Moon is Illuminated

Today's Extremes

State Highs State Lows

Community

WunderPhotos

WunderBlog® & News

Nearby

Air Quality

  Air Quality AQ Index Pollutant
Not available.

Snow Depth

Station Depth Elevation

Earthquake Activity

City Distance Mag. Time & Date
Minimum magnitude displayed is 2.5.

Coastal Water Temperatures

Place Temperature

Stations

Nearby Weather Stations

Station Location Temp. Windchill Dew Point Humidity Wind Precip. Elev Updated Type
                   

Watches & Warnings

Frost Advisory
Issued: 11:46 PM MDT Apr. 22, 2017 – National Weather Service

... Frost advisory remains in effect until 8 am CDT /7 am MDT/
this morning...

* temperature... 32 to 36 degrees.

* Timing... through early this morning.

* Impacts... recently bloomed vegetation may be damaged.

Precautionary/preparedness actions...

A frost advisory means that widespread frost is expected.
Sensitive outdoor plants may be killed if left uncovered.